sensor_id;sensor_type;location;lat;lon;timestamp;P1;durP1;ratioP1;P2;durP2;ratioP2
42840;SDS011;28491;46.898;7.660;2023-08-06T00:00:22;4.32;;;1.73;;
42840;SDS011;28491;46.898;7.660;2023-08-06T00:02:48;2.20;;;1.50;;
42840;SDS011;28491;46.898;7.660;2023-08-06T00:05:14;2.60;;;1.55;;
42840;SDS011;28491;46.898;7.660;2023-08-06T00:07:45;3.17;;;1.80;;
42840;SDS011;28491;46.898;7.660;2023-08-06T00:10:13;3.47;;;1.27;;
42840;SDS011;28491;46.898;7.660;2023-08-06T00:12:39;4.28;;;1.42;;
42840;SDS011;28491;46.898;7.660;2023-08-06T00:15:05;1.55;;;1.00;;
42840;SDS011;28491;46.898;7.660;2023-08-06T00:17:31;1.88;;;1.33;;
42840;SDS011;28491;46.898;7.660;2023-08-06T00:19:56;3.92;;;1.52;;
42840;SDS011;28491;46.898;7.660;2023-08-06T00:22:22;2.45;;;1.38;;
42840;SDS011;28491;46.898;7.660;2023-08-06T00:24:47;2.90;;;1.33;;
42840;SDS011;28491;46.898;7.660;2023-08-06T00:27:13;2.45;;;1.45;;
42840;SDS011;28491;46.898;7.660;2023-08-06T00:29:41;6.60;;;2.10;;
42840;SDS011;28491;46.898;7.660;2023-08-06T00:32:06;2.42;;;1.33;;
42840;SDS011;28491;46.898;7.660;2023-08-06T00:34:32;2.85;;;1.73;;
42840;SDS011;28491;46.898;7.660;2023-08-06T00:36:57;2.72;;;1.55;;
42840;SDS011;28491;46.898;7.660;2023-08-06T00:39:23;2.50;;;1.23;;
42840;SDS011;28491;46.898;7.660;2023-08-06T00:41:48;4.70;;;1.30;;
42840;SDS011;28491;46.898;7.660;2023-08-06T00:44:14;1.58;;;1.00;;
42840;SDS011;28491;46.898;7.660;2023-08-06T00:46:40;2.15;;;1.35;;
42840;SDS011;28491;46.898;7.660;2023-08-06T00:49:06;1.88;;;1.30;;
42840;SDS011;28491;46.898;7.660;2023-08-06T00:51:31;2.67;;;1.20;;
42840;SDS011;28491;46.898;7.660;2023-08-06T00:53:57;1.90;;;1.25;;
42840;SDS011;28491;46.898;7.660;2023-08-06T00:56:23;3.20;;;1.48;;
42840;SDS011;28491;46.898;7.660;2023-08-06T00:58:50;1.65;;;1.00;;
42840;SDS011;28491;46.898;7.660;2023-08-06T01:01:15;2.15;;;1.30;;
42840;SDS011;28491;46.898;7.660;2023-08-06T01:03:41;1.95;;;1.10;;
42840;SDS011;28491;46.898;7.660;2023-08-06T01:06:07;5.97;;;1.25;;
42840;SDS011;28491;46.898;7.660;2023-08-06T01:08:48;2.30;;;1.15;;
42840;SDS011;28491;46.898;7.660;2023-08-06T01:14:57;2.83;;;1.35;;
42840;SDS011;28491;46.898;7.660;2023-08-06T01:17:30;1.80;;;1.35;;
42840;SDS011;28491;46.898;7.660;2023-08-06T01:19:57;1.73;;;1.05;;
42840;SDS011;28491;46.898;7.660;2023-08-06T01:22:23;3.13;;;1.58;;
42840;SDS011;28491;46.898;7.660;2023-08-06T01:24:49;1.50;;;1.00;;
42840;SDS011;28491;46.898;7.660;2023-08-06T01:27:28;4.95;;;1.20;;
42840;SDS011;28491;46.898;7.660;2023-08-06T01:30:03;6.05;;;1.52;;
42840;SDS011;28491;46.898;7.660;2023-08-06T01:32:36;2.22;;;1.55;;
42840;SDS011;28491;46.898;7.660;2023-08-06T01:35:05;2.00;;;1.10;;
42840;SDS011;28491;46.898;7.660;2023-08-06T01:37:35;2.83;;;1.65;;
42840;SDS011;28491;46.898;7.660;2023-08-06T01:40:05;1.98;;;1.20;;
42840;SDS011;28491;46.898;7.660;2023-08-06T01:42:34;2.55;;;1.30;;
42840;SDS011;28491;46.898;7.660;2023-08-06T01:45:00;1.60;;;1.00;;
42840;SDS011;28491;46.898;7.660;2023-08-06T01:47:26;1.80;;;1.35;;
42840;SDS011;28491;46.898;7.660;2023-08-06T01:49:51;1.73;;;1.20;;
42840;SDS011;28491;46.898;7.660;2023-08-06T01:52:17;2.75;;;1.38;;
42840;SDS011;28491;46.898;7.660;2023-08-06T01:54:42;2.05;;;1.30;;
42840;SDS011;28491;46.898;7.660;2023-08-06T01:57:08;2.13;;;0.98;;
42840;SDS011;28491;46.898;7.660;2023-08-06T01:59:34;1.92;;;0.98;;
42840;SDS011;28491;46.898;7.660;2023-08-06T02:01:59;2.00;;;1.15;;
42840;SDS011;28491;46.898;7.660;2023-08-06T02:04:25;1.92;;;0.90;;
42840;SDS011;28491;46.898;7.660;2023-08-06T02:06:50;4.38;;;1.30;;
42840;SDS011;28491;46.898;7.660;2023-08-06T02:09:16;1.88;;;1.30;;
42840;SDS011;28491;46.898;7.660;2023-08-06T02:11:42;2.50;;;1.40;;
42840;SDS011;28491;46.898;7.660;2023-08-06T02:14:07;3.78;;;1.13;;
42840;SDS011;28491;46.898;7.660;2023-08-06T02:16:33;1.63;;;0.82;;
42840;SDS011;28491;46.898;7.660;2023-08-06T02:18:58;2.28;;;1.25;;
42840;SDS011;28491;46.898;7.660;2023-08-06T02:21:24;2.85;;;1.00;;
42840;SDS011;28491;46.898;7.660;2023-08-06T02:23:50;2.08;;;1.13;;
42840;SDS011;28491;46.898;7.660;2023-08-06T02:26:15;2.28;;;1.00;;
42840;SDS011;28491;46.898;7.660;2023-08-06T02:28:41;1.95;;;0.90;;
42840;SDS011;28491;46.898;7.660;2023-08-06T02:31:07;2.00;;;1.15;;
42840;SDS011;28491;46.898;7.660;2023-08-06T02:33:32;1.67;;;1.20;;
42840;SDS011;28491;46.898;7.660;2023-08-06T02:35:58;3.22;;;1.88;;
42840;SDS011;28491;46.898;7.660;2023-08-06T02:38:25;1.70;;;0.98;;
42840;SDS011;28491;46.898;7.660;2023-08-06T02:40:50;1.25;;;0.85;;
42840;SDS011;28491;46.898;7.660;2023-08-06T02:43:16;2.70;;;1.17;;
42840;SDS011;28491;46.898;7.660;2023-08-06T02:45:42;3.03;;;0.98;;
42840;SDS011;28491;46.898;7.660;2023-08-06T02:48:07;2.88;;;1.13;;
42840;SDS011;28491;46.898;7.660;2023-08-06T02:50:42;1.65;;;1.00;;
42840;SDS011;28491;46.898;7.660;2023-08-06T02:53:08;3.25;;;1.50;;
42840;SDS011;28491;46.898;7.660;2023-08-06T02:55:34;3.60;;;1.10;;
42840;SDS011;28491;46.898;7.660;2023-08-06T02:58:00;2.50;;;0.90;;
42840;SDS011;28491;46.898;7.660;2023-08-06T03:00:26;2.35;;;1.13;;
42840;SDS011;28491;46.898;7.660;2023-08-06T03:02:52;3.25;;;1.00;;
42840;SDS011;28491;46.898;7.660;2023-08-06T03:05:18;2.30;;;0.95;;
42840;SDS011;28491;46.898;7.660;2023-08-06T03:07:44;1.60;;;0.80;;
42840;SDS011;28491;46.898;7.660;2023-08-06T03:10:10;2.00;;;0.90;;
42840;SDS011;28491;46.898;7.660;2023-08-06T03:12:35;1.58;;;0.95;;
42840;SDS011;28491;46.898;7.660;2023-08-06T03:15:01;1.48;;;0.80;;
42840;SDS011;28491;46.898;7.660;2023-08-06T03:17:27;1.88;;;0.82;;
42840;SDS011;28491;46.898;7.660;2023-08-06T03:19:52;2.75;;;0.80;;
42840;SDS011;28491;46.898;7.660;2023-08-06T03:22:18;4.70;;;1.23;;
42840;SDS011;28491;46.898;7.660;2023-08-06T03:24:43;1.80;;;1.10;;
42840;SDS011;28491;46.898;7.660;2023-08-06T03:27:09;2.22;;;1.00;;
42840;SDS011;28491;46.898;7.660;2023-08-06T03:29:35;2.85;;;1.00;;
42840;SDS011;28491;46.898;7.660;2023-08-06T03:32:00;3.22;;;1.27;;
42840;SDS011;28491;46.898;7.660;2023-08-06T03:34:26;1.45;;;1.00;;
42840;SDS011;28491;46.898;7.660;2023-08-06T03:36:51;1.13;;;0.70;;
42840;SDS011;28491;46.898;7.660;2023-08-06T03:39:17;1.45;;;1.00;;
42840;SDS011;28491;46.898;7.660;2023-08-06T03:41:42;1.67;;;1.00;;
42840;SDS011;28491;46.898;7.660;2023-08-06T03:44:08;1.92;;;1.05;;
42840;SDS011;28491;46.898;7.660;2023-08-06T03:46:33;2.03;;;1.20;;
42840;SDS011;28491;46.898;7.660;2023-08-06T03:49:02;3.97;;;1.10;;
42840;SDS011;28491;46.898;7.660;2023-08-06T03:51:28;1.63;;;1.15;;
42840;SDS011;28491;46.898;7.660;2023-08-06T03:53:53;2.70;;;0.88;;
42840;SDS011;28491;46.898;7.660;2023-08-06T03:56:19;1.48;;;0.80;;
42840;SDS011;28491;46.898;7.660;2023-08-06T03:58:44;1.38;;;0.75;;
42840;SDS011;28491;46.898;7.660;2023-08-06T04:01:10;1.75;;;1.33;;
42840;SDS011;28491;46.898;7.660;2023-08-06T04:03:36;1.52;;;1.33;;
42840;SDS011;28491;46.898;7.660;2023-08-06T04:06:02;2.97;;;0.85;;
42840;SDS011;28491;46.898;7.660;2023-08-06T04:08:28;1.55;;;0.75;;
42840;SDS011;28491;46.898;7.660;2023-08-06T04:10:54;3.25;;;1.35;;
42840;SDS011;28491;46.898;7.660;2023-08-06T04:13:19;1.05;;;0.70;;
42840;SDS011;28491;46.898;7.660;2023-08-06T04:15:45;1.85;;;1.13;;
42840;SDS011;28491;46.898;7.660;2023-08-06T04:18:11;1.65;;;0.93;;
42840;SDS011;28491;46.898;7.660;2023-08-06T04:20:43;2.63;;;1.00;;
42840;SDS011;28491;46.898;7.660;2023-08-06T04:23:10;1.70;;;0.95;;
42840;SDS011;28491;46.898;7.660;2023-08-06T04:25:35;1.23;;;0.80;;
42840;SDS011;28491;46.898;7.660;2023-08-06T04:28:01;1.38;;;0.90;;
42840;SDS011;28491;46.898;7.660;2023-08-06T04:30:26;1.60;;;0.90;;
42840;SDS011;28491;46.898;7.660;2023-08-06T04:32:52;1.58;;;0.80;;
42840;SDS011;28491;46.898;7.660;2023-08-06T04:35:17;1.65;;;0.70;;
42840;SDS011;28491;46.898;7.660;2023-08-06T04:37:43;2.50;;;1.30;;
42840;SDS011;28491;46.898;7.660;2023-08-06T04:40:09;3.80;;;1.92;;
42840;SDS011;28491;46.898;7.660;2023-08-06T04:42:35;3.50;;;1.10;;
42840;SDS011;28491;46.898;7.660;2023-08-06T04:45:03;2.33;;;0.95;;
42840;SDS011;28491;46.898;7.660;2023-08-06T04:49:55;2.60;;;1.27;;
42840;SDS011;28491;46.898;7.660;2023-08-06T04:52:20;5.38;;;1.20;;
42840;SDS011;28491;46.898;7.660;2023-08-06T04:54:46;3.28;;;1.65;;
42840;SDS011;28491;46.898;7.660;2023-08-06T04:57:11;3.72;;;1.38;;
42840;SDS011;28491;46.898;7.660;2023-08-06T04:59:37;4.47;;;1.25;;
42840;SDS011;28491;46.898;7.660;2023-08-06T05:02:03;2.92;;;1.23;;
42840;SDS011;28491;46.898;7.660;2023-08-06T05:04:29;2.08;;;1.00;;
42840;SDS011;28491;46.898;7.660;2023-08-06T05:06:54;1.13;;;1.00;;
42840;SDS011;28491;46.898;7.660;2023-08-06T05:09:20;2.55;;;1.17;;
42840;SDS011;28491;46.898;7.660;2023-08-06T05:11:46;2.15;;;0.98;;
42840;SDS011;28491;46.898;7.660;2023-08-06T05:14:12;3.20;;;0.93;;
42840;SDS011;28491;46.898;7.660;2023-08-06T05:16:38;0.98;;;0.65;;
42840;SDS011;28491;46.898;7.660;2023-08-06T05:19:04;1.58;;;0.50;;
42840;SDS011;28491;46.898;7.660;2023-08-06T05:21:29;1.85;;;0.65;;
42840;SDS011;28491;46.898;7.660;2023-08-06T05:23:55;1.92;;;0.60;;
42840;SDS011;28491;46.898;7.660;2023-08-06T05:26:21;2.40;;;0.80;;
42840;SDS011;28491;46.898;7.660;2023-08-06T05:28:46;1.58;;;0.75;;
42840;SDS011;28491;46.898;7.660;2023-08-06T05:31:12;2.25;;;0.63;;
42840;SDS011;28491;46.898;7.660;2023-08-06T05:33:38;4.88;;;0.95;;
42840;SDS011;28491;46.898;7.660;2023-08-06T05:36:03;3.90;;;0.93;;
42840;SDS011;28491;46.898;7.660;2023-08-06T05:38:29;1.30;;;0.47;;
42840;SDS011;28491;46.898;7.660;2023-08-06T05:40:55;2.15;;;0.43;;
42840;SDS011;28491;46.898;7.660;2023-08-06T05:43:21;0.85;;;0.38;;
42840;SDS011;28491;46.898;7.660;2023-08-06T05:45:49;0.63;;;0.47;;
42840;SDS011;28491;46.898;7.660;2023-08-06T05:48:15;3.35;;;0.73;;
42840;SDS011;28491;46.898;7.660;2023-08-06T05:50:41;2.15;;;0.60;;
42840;SDS011;28491;46.898;7.660;2023-08-06T05:53:06;2.40;;;0.57;;
42840;SDS011;28491;46.898;7.660;2023-08-06T05:55:32;1.15;;;0.50;;
42840;SDS011;28491;46.898;7.660;2023-08-06T05:57:58;3.20;;;0.52;;
42840;SDS011;28491;46.898;7.660;2023-08-06T06:00:24;2.63;;;0.80;;
42840;SDS011;28491;46.898;7.660;2023-08-06T06:02:49;1.27;;;0.60;;
42840;SDS011;28491;46.898;7.660;2023-08-06T06:05:15;0.98;;;0.63;;
42840;SDS011;28491;46.898;7.660;2023-08-06T06:07:41;1.33;;;0.95;;
42840;SDS011;28491;46.898;7.660;2023-08-06T06:10:07;2.75;;;0.55;;
42840;SDS011;28491;46.898;7.660;2023-08-06T06:12:32;3.53;;;0.93;;
42840;SDS011;28491;46.898;7.660;2023-08-06T06:14:58;2.30;;;1.02;;
42840;SDS011;28491;46.898;7.660;2023-08-06T06:17:25;2.15;;;0.50;;
42840;SDS011;28491;46.898;7.660;2023-08-06T06:19:51;1.77;;;0.45;;
42840;SDS011;28491;46.898;7.660;2023-08-06T06:22:17;1.05;;;0.50;;
42840;SDS011;28491;46.898;7.660;2023-08-06T06:24:43;0.50;;;0.32;;
42840;SDS011;28491;46.898;7.660;2023-08-06T06:27:08;0.82;;;0.60;;
42840;SDS011;28491;46.898;7.660;2023-08-06T06:29:34;0.70;;;0.70;;
42840;SDS011;28491;46.898;7.660;2023-08-06T06:31:59;2.28;;;0.65;;
42840;SDS011;28491;46.898;7.660;2023-08-06T06:34:25;0.75;;;0.35;;
42840;SDS011;28491;46.898;7.660;2023-08-06T06:36:50;1.52;;;0.40;;
42840;SDS011;28491;46.898;7.660;2023-08-06T06:39:17;3.47;;;0.85;;
42840;SDS011;28491;46.898;7.660;2023-08-06T06:41:42;0.40;;;0.30;;
42840;SDS011;28491;46.898;7.660;2023-08-06T06:44:09;1.67;;;0.68;;
42840;SDS011;28491;46.898;7.660;2023-08-06T06:46:34;1.20;;;0.60;;
42840;SDS011;28491;46.898;7.660;2023-08-06T06:49:00;4.07;;;2.28;;
42840;SDS011;28491;46.898;7.660;2023-08-06T06:51:27;1.75;;;0.57;;
42840;SDS011;28491;46.898;7.660;2023-08-06T06:53:52;1.30;;;0.38;;
42840;SDS011;28491;46.898;7.660;2023-08-06T06:56:18;1.90;;;0.57;;
42840;SDS011;28491;46.898;7.660;2023-08-06T06:58:43;2.65;;;0.32;;
42840;SDS011;28491;46.898;7.660;2023-08-06T07:01:09;0.65;;;0.47;;
42840;SDS011;28491;46.898;7.660;2023-08-06T07:03:36;2.10;;;0.47;;
42840;SDS011;28491;46.898;7.660;2023-08-06T07:06:02;1.33;;;0.32;;
42840;SDS011;28491;46.898;7.660;2023-08-06T07:08:28;2.30;;;0.82;;
42840;SDS011;28491;46.898;7.660;2023-08-06T07:11:01;2.78;;;0.60;;
42840;SDS011;28491;46.898;7.660;2023-08-06T07:13:30;1.52;;;0.50;;
42840;SDS011;28491;46.898;7.660;2023-08-06T07:15:56;5.22;;;0.52;;
42840;SDS011;28491;46.898;7.660;2023-08-06T07:18:23;1.48;;;0.60;;
42840;SDS011;28491;46.898;7.660;2023-08-06T07:20:49;1.25;;;0.50;;
42840;SDS011;28491;46.898;7.660;2023-08-06T07:23:16;0.77;;;0.77;;
42840;SDS011;28491;46.898;7.660;2023-08-06T07:25:41;2.65;;;0.80;;
42840;SDS011;28491;46.898;7.660;2023-08-06T07:28:07;1.20;;;0.70;;
42840;SDS011;28491;46.898;7.660;2023-08-06T07:30:33;1.38;;;0.77;;
42840;SDS011;28491;46.898;7.660;2023-08-06T07:32:59;0.77;;;0.60;;
42840;SDS011;28491;46.898;7.660;2023-08-06T07:35:28;1.80;;;0.73;;
42840;SDS011;28491;46.898;7.660;2023-08-06T07:37:54;2.78;;;0.73;;
42840;SDS011;28491;46.898;7.660;2023-08-06T07:40:19;2.05;;;0.73;;
42840;SDS011;28491;46.898;7.660;2023-08-06T07:42:45;1.67;;;0.95;;
42840;SDS011;28491;46.898;7.660;2023-08-06T07:45:10;1.95;;;0.68;;
42840;SDS011;28491;46.898;7.660;2023-08-06T07:47:36;1.40;;;0.77;;
42840;SDS011;28491;46.898;7.660;2023-08-06T07:50:02;5.53;;;0.93;;
42840;SDS011;28491;46.898;7.660;2023-08-06T07:52:27;4.97;;;0.95;;
42840;SDS011;28491;46.898;7.660;2023-08-06T07:54:53;2.33;;;1.00;;
42840;SDS011;28491;46.898;7.660;2023-08-06T07:57:18;2.38;;;0.77;;
42840;SDS011;28491;46.898;7.660;2023-08-06T07:59:44;2.33;;;0.90;;
42840;SDS011;28491;46.898;7.660;2023-08-06T08:02:10;3.47;;;0.98;;
42840;SDS011;28491;46.898;7.660;2023-08-06T08:04:35;1.92;;;1.02;;
42840;SDS011;28491;46.898;7.660;2023-08-06T08:07:01;2.08;;;0.93;;
42840;SDS011;28491;46.898;7.660;2023-08-06T08:09:27;1.77;;;0.80;;
42840;SDS011;28491;46.898;7.660;2023-08-06T08:11:53;3.75;;;0.90;;
42840;SDS011;28491;46.898;7.660;2023-08-06T08:14:18;1.60;;;0.80;;
42840;SDS011;28491;46.898;7.660;2023-08-06T08:16:44;6.22;;;1.23;;
42840;SDS011;28491;46.898;7.660;2023-08-06T08:19:09;1.48;;;0.70;;
42840;SDS011;28491;46.898;7.660;2023-08-06T08:21:35;3.28;;;0.88;;
42840;SDS011;28491;46.898;7.660;2023-08-06T08:24:01;5.75;;;0.90;;
42840;SDS011;28491;46.898;7.660;2023-08-06T08:26:28;2.92;;;0.88;;
42840;SDS011;28491;46.898;7.660;2023-08-06T08:28:54;1.35;;;0.68;;
42840;SDS011;28491;46.898;7.660;2023-08-06T08:31:20;1.52;;;0.80;;
42840;SDS011;28491;46.898;7.660;2023-08-06T08:33:45;1.52;;;0.63;;
42840;SDS011;28491;46.898;7.660;2023-08-06T08:36:11;3.70;;;0.65;;
42840;SDS011;28491;46.898;7.660;2023-08-06T08:38:36;4.82;;;0.80;;
42840;SDS011;28491;46.898;7.660;2023-08-06T08:41:02;2.75;;;0.93;;
42840;SDS011;28491;46.898;7.660;2023-08-06T08:43:28;0.77;;;0.52;;
42840;SDS011;28491;46.898;7.660;2023-08-06T08:46:04;2.45;;;0.60;;
42840;SDS011;28491;46.898;7.660;2023-08-06T08:48:33;1.23;;;0.60;;
42840;SDS011;28491;46.898;7.660;2023-08-06T08:50:59;3.15;;;0.80;;
42840;SDS011;28491;46.898;7.660;2023-08-06T08:53:24;1.98;;;0.70;;
42840;SDS011;28491;46.898;7.660;2023-08-06T08:55:51;1.83;;;0.57;;
42840;SDS011;28491;46.898;7.660;2023-08-06T08:58:18;0.50;;;0.40;;
42840;SDS011;28491;46.898;7.660;2023-08-06T09:00:45;3.38;;;0.50;;
42840;SDS011;28491;46.898;7.660;2023-08-06T09:03:11;1.25;;;0.32;;
42840;SDS011;28491;46.898;7.660;2023-08-06T09:05:37;0.52;;;0.40;;
42840;SDS011;28491;46.898;7.660;2023-08-06T09:08:15;0.65;;;0.40;;
42840;SDS011;28491;46.898;7.660;2023-08-06T09:10:48;0.63;;;0.40;;
42840;SDS011;28491;46.898;7.660;2023-08-06T09:13:21;0.63;;;0.40;;
42840;SDS011;28491;46.898;7.660;2023-08-06T09:18:48;0.85;;;0.45;;
42840;SDS011;28491;46.898;7.660;2023-08-06T09:21:14;3.88;;;0.70;;
42840;SDS011;28491;46.898;7.660;2023-08-06T09:23:43;1.02;;;0.77;;
42840;SDS011;28491;46.898;7.660;2023-08-06T09:26:11;0.93;;;0.25;;
42840;SDS011;28491;46.898;7.660;2023-08-06T09:28:53;1.07;;;0.83;;
42840;SDS011;28491;46.898;7.660;2023-08-06T09:31:48;0.65;;;0.30;;
42840;SDS011;28491;46.898;7.660;2023-08-06T09:34:32;0.30;;;0.30;;
42840;SDS011;28491;46.898;7.660;2023-08-06T09:37:21;0.57;;;0.40;;
42840;SDS011;28491;46.898;7.660;2023-08-06T09:39:52;1.13;;;0.32;;
42840;SDS011;28491;46.898;7.660;2023-08-06T09:42:21;0.20;;;0.20;;
42840;SDS011;28491;46.898;7.660;2023-08-06T09:45:05;0.68;;;0.30;;
42840;SDS011;28491;46.898;7.660;2023-08-06T09:47:36;0.35;;;0.20;;
42840;SDS011;28491;46.898;7.660;2023-08-06T09:50:05;0.30;;;0.30;;
42840;SDS011;28491;46.898;7.660;2023-08-06T09:52:33;0.60;;;0.28;;
42840;SDS011;28491;46.898;7.660;2023-08-06T09:54:58;0.10;;;0.10;;
42840;SDS011;28491;46.898;7.660;2023-08-06T09:57:25;2.03;;;0.40;;
42840;SDS011;28491;46.898;7.660;2023-08-06T09:59:51;0.65;;;0.28;;
42840;SDS011;28491;46.898;7.660;2023-08-06T10:02:17;0.20;;;0.20;;
42840;SDS011;28491;46.898;7.660;2023-08-06T10:04:47;1.02;;;0.30;;
42840;SDS011;28491;46.898;7.660;2023-08-06T10:07:12;0.43;;;0.30;;
42840;SDS011;28491;46.898;7.660;2023-08-06T10:09:38;0.52;;;0.30;;
42840;SDS011;28491;46.898;7.660;2023-08-06T10:12:04;0.50;;;0.40;;
42840;SDS011;28491;46.898;7.660;2023-08-06T10:14:33;1.08;;;0.22;;
42840;SDS011;28491;46.898;7.660;2023-08-06T10:17:02;1.23;;;0.55;;
42840;SDS011;28491;46.898;7.660;2023-08-06T10:19:28;0.70;;;0.32;;
42840;SDS011;28491;46.898;7.660;2023-08-06T10:22:11;0.43;;;0.30;;
42840;SDS011;28491;46.898;7.660;2023-08-06T10:32:49;0.40;;;0.40;;
42840;SDS011;28491;46.898;7.660;2023-08-06T10:35:30;1.02;;;0.30;;
42840;SDS011;28491;46.898;7.660;2023-08-06T10:38:02;0.60;;;0.40;;
42840;SDS011;28491;46.898;7.660;2023-08-06T10:40:29;0.55;;;0.43;;
42840;SDS011;28491;46.898;7.660;2023-08-06T10:42:58;0.30;;;0.30;;
42840;SDS011;28491;46.898;7.660;2023-08-06T10:45:25;0.60;;;0.40;;
42840;SDS011;28491;46.898;7.660;2023-08-06T10:47:53;0.82;;;0.47;;
42840;SDS011;28491;46.898;7.660;2023-08-06T10:50:23;0.30;;;0.30;;
42840;SDS011;28491;46.898;7.660;2023-08-06T10:52:49;0.60;;;0.30;;
42840;SDS011;28491;46.898;7.660;2023-08-06T10:55:21;0.30;;;0.30;;
42840;SDS011;28491;46.898;7.660;2023-08-06T10:57:51;0.30;;;0.20;;
42840;SDS011;28491;46.898;7.660;2023-08-06T11:00:17;0.22;;;0.22;;
42840;SDS011;28491;46.898;7.660;2023-08-06T11:02:43;0.30;;;0.30;;
42840;SDS011;28491;46.898;7.660;2023-08-06T11:05:09;0.20;;;0.20;;
42840;SDS011;28491;46.898;7.660;2023-08-06T11:07:36;1.13;;;0.40;;
42840;SDS011;28491;46.898;7.660;2023-08-06T11:10:02;1.17;;;0.40;;
42840;SDS011;28491;46.898;7.660;2023-08-06T11:12:33;0.43;;;0.28;;
42840;SDS011;28491;46.898;7.660;2023-08-06T11:14:59;0.30;;;0.25;;
42840;SDS011;28491;46.898;7.660;2023-08-06T11:17:29;0.63;;;0.30;;
42840;SDS011;28491;46.898;7.660;2023-08-06T11:19:56;0.40;;;0.40;;
42840;SDS011;28491;46.898;7.660;2023-08-06T11:22:24;0.38;;;0.30;;
42840;SDS011;28491;46.898;7.660;2023-08-06T11:24:50;0.85;;;0.40;;
42840;SDS011;28491;46.898;7.660;2023-08-06T11:27:16;1.42;;;0.40;;
42840;SDS011;28491;46.898;7.660;2023-08-06T11:29:42;0.43;;;0.30;;
42840;SDS011;28491;46.898;7.660;2023-08-06T11:32:08;0.40;;;0.30;;
42840;SDS011;28491;46.898;7.660;2023-08-06T11:34:35;0.80;;;0.40;;
42840;SDS011;28491;46.898;7.660;2023-08-06T11:37:02;0.90;;;0.50;;
42840;SDS011;28491;46.898;7.660;2023-08-06T11:39:30;1.63;;;0.68;;
42840;SDS011;28491;46.898;7.660;2023-08-06T11:41:57;0.95;;;0.65;;
42840;SDS011;28491;46.898;7.660;2023-08-06T11:44:25;2.83;;;1.30;;
42840;SDS011;28491;46.898;7.660;2023-08-06T11:52:10;0.57;;;0.30;;
42840;SDS011;28491;46.898;7.660;2023-08-06T11:54:38;1.90;;;0.30;;
42840;SDS011;28491;46.898;7.660;2023-08-06T11:57:07;0.17;;;0.15;;
42840;SDS011;28491;46.898;7.660;2023-08-06T11:59:33;0.40;;;0.30;;
42840;SDS011;28491;46.898;7.660;2023-08-06T12:02:03;0.57;;;0.20;;
42840;SDS011;28491;46.898;7.660;2023-08-06T12:04:30;0.13;;;0.13;;
42840;SDS011;28491;46.898;7.660;2023-08-06T12:07:04;0.63;;;0.20;;
42840;SDS011;28491;46.898;7.660;2023-08-06T12:09:32;0.55;;;0.32;;
42840;SDS011;28491;46.898;7.660;2023-08-06T12:11:58;0.10;;;0.10;;
42840;SDS011;28491;46.898;7.660;2023-08-06T12:14:24;0.20;;;0.20;;
42840;SDS011;28491;46.898;7.660;2023-08-06T12:16:49;0.43;;;0.20;;
42840;SDS011;28491;46.898;7.660;2023-08-06T12:19:15;0.22;;;0.22;;
42840;SDS011;28491;46.898;7.660;2023-08-06T12:21:41;0.10;;;0.10;;
42840;SDS011;28491;46.898;7.660;2023-08-06T12:24:06;0.65;;;0.32;;
42840;SDS011;28491;46.898;7.660;2023-08-06T12:26:32;1.02;;;0.40;;
42840;SDS011;28491;46.898;7.660;2023-08-06T12:28:58;1.27;;;0.50;;
42840;SDS011;28491;46.898;7.660;2023-08-06T12:31:23;0.10;;;0.10;;
42840;SDS011;28491;46.898;7.660;2023-08-06T12:33:49;3.75;;;0.30;;
42840;SDS011;28491;46.898;7.660;2023-08-06T12:36:14;0.38;;;0.22;;
42840;SDS011;28491;46.898;7.660;2023-08-06T12:38:40;0.40;;;0.40;;
42840;SDS011;28491;46.898;7.660;2023-08-06T12:41:05;0.28;;;0.15;;
42840;SDS011;28491;46.898;7.660;2023-08-06T12:43:31;1.65;;;0.40;;
42840;SDS011;28491;46.898;7.660;2023-08-06T12:45:57;0.45;;;0.32;;
42840;SDS011;28491;46.898;7.660;2023-08-06T12:48:22;0.45;;;0.38;;
42840;SDS011;28491;46.898;7.660;2023-08-06T12:50:48;0.25;;;0.25;;
42840;SDS011;28491;46.898;7.660;2023-08-06T12:53:14;1.33;;;0.88;;
42840;SDS011;28491;46.898;7.660;2023-08-06T12:55:40;1.33;;;0.20;;
42840;SDS011;28491;46.898;7.660;2023-08-06T12:58:06;1.50;;;0.45;;
42840;SDS011;28491;46.898;7.660;2023-08-06T13:00:31;0.90;;;0.50;;
42840;SDS011;28491;46.898;7.660;2023-08-06T13:02:57;0.60;;;0.40;;
42840;SDS011;28491;46.898;7.660;2023-08-06T13:05:23;0.75;;;0.40;;
42840;SDS011;28491;46.898;7.660;2023-08-06T13:07:48;1.95;;;0.40;;
42840;SDS011;28491;46.898;7.660;2023-08-06T13:10:14;0.35;;;0.35;;
42840;SDS011;28491;46.898;7.660;2023-08-06T13:12:39;1.10;;;0.65;;
42840;SDS011;28491;46.898;7.660;2023-08-06T13:15:05;0.82;;;0.40;;
42840;SDS011;28491;46.898;7.660;2023-08-06T13:17:34;0.43;;;0.30;;
42840;SDS011;28491;46.898;7.660;2023-08-06T13:20:00;0.63;;;0.45;;
42840;SDS011;28491;46.898;7.660;2023-08-06T13:22:26;0.68;;;0.50;;
42840;SDS011;28491;46.898;7.660;2023-08-06T13:24:51;0.65;;;0.50;;
42840;SDS011;28491;46.898;7.660;2023-08-06T13:27:17;1.10;;;0.63;;
42840;SDS011;28491;46.898;7.660;2023-08-06T13:29:42;0.28;;;0.28;;
42840;SDS011;28491;46.898;7.660;2023-08-06T13:32:08;0.40;;;0.25;;
42840;SDS011;28491;46.898;7.660;2023-08-06T13:34:33;0.60;;;0.50;;
42840;SDS011;28491;46.898;7.660;2023-08-06T13:36:59;1.17;;;0.30;;
42840;SDS011;28491;46.898;7.660;2023-08-06T13:39:24;1.05;;;0.40;;
42840;SDS011;28491;46.898;7.660;2023-08-06T13:41:50;0.43;;;0.43;;
42840;SDS011;28491;46.898;7.660;2023-08-06T13:44:15;1.40;;;0.50;;
42840;SDS011;28491;46.898;7.660;2023-08-06T13:46:41;0.52;;;0.40;;
42840;SDS011;28491;46.898;7.660;2023-08-06T13:49:07;0.60;;;0.50;;
42840;SDS011;28491;46.898;7.660;2023-08-06T13:51:33;0.90;;;0.40;;
42840;SDS011;28491;46.898;7.660;2023-08-06T13:54:00;0.55;;;0.40;;
42840;SDS011;28491;46.898;7.660;2023-08-06T13:56:26;0.77;;;0.43;;
42840;SDS011;28491;46.898;7.660;2023-08-06T13:58:51;0.30;;;0.30;;
42840;SDS011;28491;46.898;7.660;2023-08-06T14:01:17;0.60;;;0.30;;
42840;SDS011;28491;46.898;7.660;2023-08-06T14:06:11;0.63;;;0.60;;
42840;SDS011;28491;46.898;7.660;2023-08-06T14:08:37;0.30;;;0.30;;
42840;SDS011;28491;46.898;7.660;2023-08-06T14:11:02;0.57;;;0.45;;
42840;SDS011;28491;46.898;7.660;2023-08-06T14:13:28;0.55;;;0.30;;
42840;SDS011;28491;46.898;7.660;2023-08-06T14:15:53;0.45;;;0.40;;
42840;SDS011;28491;46.898;7.660;2023-08-06T14:18:19;0.55;;;0.40;;
42840;SDS011;28491;46.898;7.660;2023-08-06T14:20:45;0.52;;;0.40;;
42840;SDS011;28491;46.898;7.660;2023-08-06T14:23:10;1.63;;;0.50;;
42840;SDS011;28491;46.898;7.660;2023-08-06T14:25:36;2.15;;;0.75;;
42840;SDS011;28491;46.898;7.660;2023-08-06T14:28:03;1.10;;;0.70;;
42840;SDS011;28491;46.898;7.660;2023-08-06T14:30:29;0.90;;;0.70;;
42840;SDS011;28491;46.898;7.660;2023-08-06T14:32:54;1.73;;;0.75;;
42840;SDS011;28491;46.898;7.660;2023-08-06T14:35:20;0.75;;;0.43;;
42840;SDS011;28491;46.898;7.660;2023-08-06T14:37:45;1.13;;;0.40;;
42840;SDS011;28491;46.898;7.660;2023-08-06T14:40:11;0.50;;;0.38;;
42840;SDS011;28491;46.898;7.660;2023-08-06T14:42:37;1.17;;;0.60;;
42840;SDS011;28491;46.898;7.660;2023-08-06T14:45:02;0.30;;;0.30;;
42840;SDS011;28491;46.898;7.660;2023-08-06T14:47:28;0.73;;;0.35;;
42840;SDS011;28491;46.898;7.660;2023-08-06T14:49:54;1.05;;;0.43;;
42840;SDS011;28491;46.898;7.660;2023-08-06T14:52:20;1.15;;;0.50;;
42840;SDS011;28491;46.898;7.660;2023-08-06T14:54:45;0.43;;;0.40;;
42840;SDS011;28491;46.898;7.660;2023-08-06T14:57:11;0.68;;;0.40;;
42840;SDS011;28491;46.898;7.660;2023-08-06T14:59:38;1.30;;;0.60;;
42840;SDS011;28491;46.898;7.660;2023-08-06T15:02:05;1.63;;;0.63;;
42840;SDS011;28491;46.898;7.660;2023-08-06T15:04:31;2.38;;;0.85;;
42840;SDS011;28491;46.898;7.660;2023-08-06T15:06:56;0.70;;;0.50;;
42840;SDS011;28491;46.898;7.660;2023-08-06T15:09:22;1.10;;;0.70;;